createdAt,value
2018-04-10T00:00:52.563Z,94113
2018-04-10T00:03:20.611Z,94107
2018-04-10T00:05:48.675Z,94112
2018-04-10T00:08:16.736Z,94111
2018-04-10T00:10:44.820Z,94113
2018-04-10T00:13:12.889Z,94110
2018-04-10T00:15:40.960Z,94101
2018-04-10T00:18:09.016Z,94101
2018-04-10T00:20:37.088Z,94097
2018-04-10T00:23:05.143Z,94108
2018-04-10T00:25:33.217Z,94105
2018-04-10T00:28:01.308Z,94114
2018-04-10T00:30:29.360Z,94098
2018-04-10T00:32:57.431Z,94106
2018-04-10T00:35:25.490Z,94100
2018-04-10T00:37:53.562Z,94100
2018-04-10T00:40:21.611Z,94106
2018-04-10T00:42:49.675Z,94098
2018-04-10T00:45:17.723Z,94104
2018-04-10T00:47:45.791Z,94115
2018-04-10T00:50:13.853Z,94105
2018-04-10T00:52:41.917Z,94111
2018-04-10T00:55:09.971Z,94110
2018-04-10T00:57:38.029Z,94108
2018-04-10T01:00:06.087Z,94115
2018-04-10T01:02:34.151Z,94109
2018-04-10T01:05:02.199Z,94109
2018-04-10T01:07:30.256Z,94104
2018-04-10T01:09:58.312Z,94108
2018-04-10T01:12:26.376Z,94110
2018-04-10T01:14:54.432Z,94108
2018-04-10T01:17:22.497Z,94099
2018-04-10T01:19:50.543Z,94104
2018-04-10T01:22:18.599Z,94108
2018-04-10T01:24:46.651Z,94104
2018-04-10T01:27:14.707Z,94112
2018-04-10T01:29:42.768Z,94110
2018-04-10T01:32:11.840Z,94111
2018-04-10T01:34:39.892Z,94110
2018-04-10T01:37:07.951Z,94116
2018-04-10T01:39:36.007Z,94110
2018-04-10T01:42:04.085Z,94119
2018-04-10T01:44:32.143Z,94116
2018-04-10T01:47:00.204Z,94119
2018-04-10T01:49:28.260Z,94123
2018-04-10T01:51:56.335Z,94127
2018-04-10T01:54:24.387Z,94122
2018-04-10T01:56:52.457Z,94120
2018-04-10T01:59:20.504Z,94110
2018-04-10T02:01:48.574Z,94119
2018-04-10T02:04:16.652Z,94122
2018-04-10T02:06:44.687Z,94124
2018-04-10T02:09:12.749Z,94121
2018-04-10T02:11:40.806Z,94119
2018-04-10T02:14:08.859Z,94120
2018-04-10T02:16:36.922Z,94118
2018-04-10T02:19:05.009Z,94112
2018-04-10T02:21:33.066Z,94115
2018-04-10T02:24:01.147Z,94110
2018-04-10T02:26:29.191Z,94117
2018-04-10T02:28:57.281Z,94106
2018-04-10T02:31:25.325Z,94102
2018-04-10T02:33:53.380Z,94111
2018-04-10T02:36:21.444Z,94099
2018-04-10T02:38:49.492Z,94112
2018-04-10T02:41:17.551Z,94107
2018-04-10T02:43:45.617Z,94102
2018-04-10T02:46:13.667Z,94103
2018-04-10T02:48:41.731Z,94105
2018-04-10T02:51:09.787Z,94107
2018-04-10T02:53:37.843Z,94092
2018-04-10T02:56:05.900Z,94094
2018-04-10T02:58:33.975Z,94098
2018-04-10T03:01:02.027Z,94106
2018-04-10T03:03:30.099Z,94102
2018-04-10T03:05:58.153Z,94106
2018-04-10T03:08:26.220Z,94100
2018-04-10T03:10:54.278Z,94093
2018-04-10T03:13:22.339Z,94081
2018-04-10T03:15:50.396Z,94086
2018-04-10T03:18:18.451Z,94081
2018-04-10T03:20:46.551Z,94089
2018-04-10T03:23:14.560Z,94091
2018-04-10T03:25:42.615Z,94098
2018-04-10T03:28:10.675Z,94100
2018-04-10T03:30:38.724Z,94091
2018-04-10T03:33:06.793Z,94096
2018-04-10T03:35:34.856Z,94101
2018-04-10T03:38:02.955Z,94093
2018-04-10T03:40:31.017Z,94093
2018-04-10T03:42:59.084Z,94086
2018-04-10T03:45:27.135Z,94078
2018-04-10T03:47:55.216Z,94085
2018-04-10T03:50:23.248Z,94097
2018-04-10T03:52:52.429Z,94082
2018-04-10T03:55:21.475Z,94088
2018-04-10T03:57:49.541Z,94076
2018-04-10T04:00:17.587Z,94081
2018-04-10T04:02:45.655Z,94078
2018-04-10T04:05:13.703Z,94072
2018-04-10T04:07:41.770Z,94075
2018-04-10T04:10:09.827Z,94068
2018-04-10T04:12:37.895Z,94076
2018-04-10T04:15:05.950Z,94069
2018-04-10T04:17:34.016Z,94060
2018-04-10T04:20:19.641Z,94068
2018-04-10T04:22:47.701Z,94067
2018-04-10T04:25:15.752Z,94053
2018-04-10T04:27:43.827Z,94057
2018-04-10T04:30:11.871Z,94054
2018-04-10T04:32:39.929Z,94051
2018-04-10T04:35:08.008Z,94044
2018-04-10T04:37:36.059Z,94057
2018-04-10T04:40:04.120Z,94050
2018-04-10T04:42:32.180Z,94059
2018-04-10T04:45:00.256Z,94060
2018-04-10T04:47:28.298Z,94058
2018-04-10T04:49:56.361Z,94053
2018-04-10T04:52:24.403Z,94062
2018-04-10T04:54:52.468Z,94065
2018-04-10T04:57:20.530Z,94056
2018-04-10T04:59:48.595Z,94065
2018-04-10T05:02:17.280Z,94048
2018-04-10T05:04:45.343Z,94062
2018-04-10T05:07:13.399Z,94065
2018-04-10T05:09:41.456Z,94065
2018-04-10T05:12:10.496Z,94070
2018-04-10T05:14:38.577Z,94069
2018-04-10T05:17:06.618Z,94066
2018-04-10T05:19:34.680Z,94053
2018-04-10T05:22:02.755Z,94050
2018-04-10T05:24:30.811Z,94051
2018-04-10T05:26:58.871Z,94052
2018-04-10T05:29:26.932Z,94056
2018-04-10T05:31:55.000Z,94047
2018-04-10T05:34:23.054Z,94060
2018-04-10T05:36:52.135Z,94056
2018-04-10T05:39:20.200Z,94053
2018-04-10T05:41:48.270Z,94057
2018-04-10T05:44:16.329Z,94052
2018-04-10T05:46:44.380Z,94047
2018-04-10T05:49:12.444Z,94046
2018-04-10T05:51:40.512Z,94041
2018-04-10T05:54:08.570Z,94040
2018-04-10T05:56:36.620Z,94036
2018-04-10T05:59:04.695Z,94040
2018-04-10T06:01:32.751Z,94040
2018-04-10T06:04:00.879Z,94049
2018-04-10T06:06:28.883Z,94047
2018-04-10T06:08:56.935Z,94050
2018-04-10T06:11:24.996Z,94054
2018-04-10T06:13:53.080Z,94053
2018-04-10T06:16:21.144Z,94059
2018-04-10T06:18:49.216Z,94061
2018-04-10T06:21:17.268Z,94077
2018-04-10T06:23:45.336Z,94071
2018-04-10T06:26:13.395Z,94073
2018-04-10T06:28:41.463Z,94075
2018-04-10T06:31:09.531Z,94067
2018-04-10T06:33:37.600Z,94066
2018-04-10T06:36:05.656Z,94072
2018-04-10T06:38:33.716Z,94075
2018-04-10T06:41:01.805Z,94068
2018-04-10T06:43:29.862Z,94069
2018-04-10T06:45:57.938Z,94067
2018-04-10T06:48:26.000Z,94066
2018-04-10T06:50:54.080Z,94068
2018-04-10T06:53:22.141Z,94067
2018-04-10T06:55:50.203Z,94064
2018-04-10T06:58:18.283Z,94062
2018-04-10T07:00:46.368Z,94058
2018-04-10T07:03:14.440Z,94064
2018-04-10T07:05:42.507Z,94061
2018-04-10T07:08:10.589Z,94055
2018-04-10T07:10:38.680Z,94060
2018-04-10T07:13:06.716Z,94059
2018-04-10T07:15:34.796Z,94041
2018-04-10T07:18:02.856Z,94053
2018-04-10T07:20:30.937Z,94054
2018-04-10T07:22:59.002Z,94054
2018-04-10T07:25:27.069Z,94040
2018-04-10T07:27:55.156Z,94040
2018-04-10T07:30:23.208Z,94053
2018-04-10T07:32:52.127Z,94045
2018-04-10T07:35:20.191Z,94040
2018-04-10T07:37:48.252Z,94044
2018-04-10T07:40:16.320Z,94051
2018-04-10T07:42:44.379Z,94053
2018-04-10T07:45:12.466Z,94055
2018-04-10T07:47:40.536Z,94058
2018-04-10T07:50:08.616Z,94061
2018-04-10T07:52:36.684Z,94053
2018-04-10T07:55:04.765Z,94062
2018-04-10T07:57:32.818Z,94062
2018-04-10T08:00:00.896Z,94064
2018-04-10T08:02:28.948Z,94072
2018-04-10T08:04:57.011Z,94066
2018-04-10T08:07:25.090Z,94073
2018-04-10T08:09:53.167Z,94074
2018-04-10T08:12:21.227Z,94070
2018-04-10T08:14:49.297Z,94061
2018-04-10T08:17:17.352Z,94072
2018-04-10T08:19:45.423Z,94063
2018-04-10T08:22:13.501Z,94063
2018-04-10T08:24:41.551Z,94053
2018-04-10T08:27:09.628Z,94058
2018-04-10T08:29:37.695Z,94053
2018-04-10T08:32:05.752Z,94059
2018-04-10T08:34:33.824Z,94053
2018-04-10T08:37:01.880Z,94054
2018-04-10T08:39:29.952Z,94048
2018-04-10T08:41:58.024Z,94050
2018-04-10T08:44:26.092Z,94050
2018-04-10T08:46:54.148Z,94047
2018-04-10T08:49:22.244Z,94052
2018-04-10T08:51:50.312Z,94058
2018-04-10T08:54:18.372Z,94054
2018-04-10T08:56:46.439Z,94058
2018-04-10T08:59:14.505Z,94056
2018-04-10T09:01:42.588Z,94061
2018-04-10T09:04:10.651Z,94057
2018-04-10T09:06:38.726Z,94060
2018-04-10T09:09:06.785Z,94062
2018-04-10T09:11:34.856Z,94056
2018-04-10T09:14:02.928Z,94054
2018-04-10T09:16:30.993Z,94057
2018-04-10T09:18:59.067Z,94050
2018-04-10T09:21:27.127Z,94053
2018-04-10T09:23:55.204Z,94046
2018-04-10T09:26:23.269Z,94048
2018-04-10T09:28:52.444Z,94045
2018-04-10T09:31:20.509Z,94052
2018-04-10T09:33:48.568Z,94047
2018-04-10T09:36:16.640Z,94046
2018-04-10T09:38:44.699Z,94048
2018-04-10T09:41:12.780Z,94038
2018-04-10T09:43:40.890Z,94037
2018-04-10T09:46:08.915Z,94050
2018-04-10T09:48:36.982Z,94044
2018-04-10T09:51:05.040Z,94040
2018-04-10T09:53:33.101Z,94042
2018-04-10T09:56:01.164Z,94037
2018-04-10T09:58:29.232Z,94035
2018-04-10T10:00:57.310Z,94032
2018-04-10T10:03:25.380Z,94035
2018-04-10T10:05:54.289Z,94022
2018-04-10T10:08:22.348Z,94020
2018-04-10T10:10:50.409Z,94032
2018-04-10T10:13:18.468Z,94027
2018-04-10T10:15:46.533Z,94032
2018-04-10T10:18:14.600Z,94034
2018-04-10T10:20:42.676Z,94030
2018-04-10T10:23:10.737Z,94038
2018-04-10T10:25:38.803Z,94041
2018-04-10T10:28:06.868Z,94030
2018-04-10T10:30:34.944Z,94031
2018-04-10T10:33:03.016Z,94035
2018-04-10T10:35:31.075Z,94042
2018-04-10T10:37:59.139Z,94047
2018-04-10T10:40:27.208Z,94045
2018-04-10T10:42:55.267Z,94041
2018-04-10T10:45:23.338Z,94034
2018-04-10T10:47:52.152Z,94033
2018-04-10T10:50:20.219Z,94028
2018-04-10T10:52:48.289Z,94018
2018-04-10T10:55:16.355Z,94037
2018-04-10T10:57:44.410Z,94026
2018-04-10T11:00:14.783Z,94042
2018-04-10T11:02:42.828Z,94036
2018-04-10T11:05:11.028Z,94028
2018-04-10T11:07:39.085Z,94028
2018-04-10T11:10:07.168Z,94046
2018-04-10T11:12:35.228Z,94047
2018-04-10T11:15:03.292Z,94036
2018-04-10T11:17:31.352Z,94038
2018-04-10T11:19:59.404Z,94035
2018-04-10T11:22:27.488Z,94044
2018-04-10T11:24:55.550Z,94047
2018-04-10T11:27:23.613Z,94047
2018-04-10T11:29:52.256Z,94046
2018-04-10T11:32:20.324Z,94047
2018-04-10T11:34:48.383Z,94031
2018-04-10T11:37:16.451Z,94038
2018-04-10T11:39:44.521Z,94029
2018-04-10T11:42:12.572Z,94028
2018-04-10T11:44:40.639Z,94038
2018-04-10T11:47:08.705Z,94035
2018-04-10T11:49:36.759Z,94035
2018-04-10T11:52:04.827Z,94037
2018-04-10T11:54:32.900Z,94041
2018-04-10T11:57:00.964Z,94039
2018-04-10T11:59:29.025Z,94037
2018-04-10T12:01:57.098Z,94022
2018-04-10T12:04:25.162Z,94022
2018-04-10T12:06:53.229Z,94021
2018-04-10T12:09:21.289Z,94011
2018-04-10T12:11:49.370Z,94014
2018-04-10T12:14:17.428Z,94014
2018-04-10T12:16:45.496Z,94011
2018-04-10T12:19:13.569Z,94023
2018-04-10T12:21:41.633Z,94015
2018-04-10T12:24:09.697Z,94005
2018-04-10T12:26:37.768Z,94007
2018-04-10T12:29:05.826Z,94003
2018-04-10T12:31:33.893Z,94009
2018-04-10T12:34:01.949Z,94008
2018-04-10T12:36:30.019Z,93996
2018-04-10T12:38:58.084Z,93992
2018-04-10T12:41:26.159Z,93998
2018-04-10T12:43:54.223Z,94005
2018-04-10T12:46:22.300Z,93992
2018-04-10T12:48:50.361Z,93989
2018-04-10T12:51:18.423Z,93987
2018-04-10T12:53:46.484Z,93985
2018-04-10T12:56:14.555Z,93994
2018-04-10T12:58:42.624Z,93987
2018-04-10T13:01:10.716Z,93981
2018-04-10T13:03:38.775Z,93980
2018-04-10T13:06:06.840Z,93981
2018-04-10T13:08:34.905Z,93978
2018-04-10T13:11:02.976Z,93984
2018-04-10T13:13:31.040Z,93979
2018-04-10T13:15:59.107Z,93980
2018-04-10T13:18:27.169Z,93978
2018-04-10T13:20:55.249Z,93980
2018-04-10T13:23:23.307Z,93979
2018-04-10T13:25:52.145Z,93968
2018-04-10T13:28:20.226Z,93976
2018-04-10T13:30:48.275Z,93976
2018-04-10T13:33:16.348Z,93977
2018-04-10T13:35:44.407Z,93977
2018-04-10T13:38:12.476Z,93979
2018-04-10T13:40:40.547Z,93966
2018-04-10T13:43:08.628Z,93973
2018-04-10T13:45:36.696Z,93978
2018-04-10T13:48:04.767Z,93974
2018-04-10T13:50:32.824Z,93972
2018-04-10T13:53:00.908Z,93972
2018-04-10T13:55:28.963Z,93972
2018-04-10T13:57:57.040Z,93971
2018-04-10T14:00:26.171Z,93973
2018-04-10T14:02:54.236Z,93972
2018-04-10T14:05:22.919Z,93970
2018-04-10T14:07:53.406Z,93962
2018-04-10T14:10:21.468Z,93963
2018-04-10T14:12:49.528Z,93969
2018-04-10T14:15:17.589Z,93965
2018-04-10T14:17:45.648Z,93962
2018-04-10T14:20:13.820Z,93963
2018-04-10T14:22:41.885Z,93967
2018-04-10T14:25:10.792Z,93962
2018-04-10T14:27:39.089Z,93960
2018-04-10T14:30:07.140Z,93967
2018-04-10T14:32:35.208Z,93966
2018-04-10T14:35:03.273Z,93964
2018-04-10T14:37:31.359Z,93956
2018-04-10T14:39:59.413Z,93961
2018-04-10T14:42:27.464Z,93963
2018-04-10T14:44:55.532Z,93964
2018-04-10T14:47:23.596Z,93958
2018-04-10T14:49:52.369Z,93957
2018-04-10T14:52:20.457Z,93952
2018-04-10T14:54:48.516Z,93958
2018-04-10T14:57:16.576Z,93953
2018-04-10T14:59:45.942Z,93952
2018-04-10T15:02:14.019Z,93956
2018-04-10T15:04:42.094Z,93958
2018-04-10T15:07:10.305Z,93960
2018-04-10T15:09:38.576Z,93959
2018-04-10T15:12:06.707Z,93956
2018-04-10T15:14:35.049Z,93957
2018-04-10T15:17:03.139Z,93954
2018-04-10T15:19:31.214Z,93959
2018-04-10T15:21:59.354Z,93962
2018-04-10T15:24:27.404Z,93963
2018-04-10T15:26:55.484Z,93958
2018-04-10T15:29:23.657Z,93964
2018-04-10T15:31:52.157Z,93963
2018-04-10T15:34:20.265Z,93961
2018-04-10T15:36:48.499Z,93962
2018-04-10T15:39:16.582Z,93955
2018-04-10T15:41:44.667Z,93958
2018-04-10T15:44:12.753Z,93962
2018-04-10T15:46:40.796Z,93966
2018-04-10T15:49:10.384Z,93963
2018-04-10T15:51:38.564Z,93960
2018-04-10T15:54:06.651Z,93965
2018-04-10T15:56:34.886Z,93958
2018-04-10T15:59:03.883Z,93956
2018-04-10T16:01:31.953Z,93965
2018-04-10T16:04:01.156Z,93959
2018-04-10T16:06:29.202Z,93970
2018-04-10T16:08:57.312Z,93962
2018-04-10T16:11:26.432Z,93962
2018-04-10T16:13:54.550Z,93961
2018-04-10T16:16:22.622Z,93958
2018-04-10T16:18:50.783Z,93955
2018-04-10T16:21:18.836Z,93951
2018-04-10T16:23:46.923Z,93964
2018-04-10T16:26:14.980Z,93958
2018-04-10T16:28:43.777Z,93961
2018-04-10T16:31:11.839Z,93953
2018-04-10T16:33:40.016Z,93959
2018-04-10T16:36:08.092Z,93948
2018-04-10T16:38:36.175Z,93959
2018-04-10T16:41:04.523Z,93959
2018-04-10T16:43:32.591Z,93953
2018-04-10T16:46:00.688Z,93962
2018-04-10T16:48:28.879Z,93948
2018-04-10T16:50:56.930Z,93948
2018-04-10T16:53:24.999Z,93944
2018-04-10T16:55:53.477Z,93948
2018-04-10T16:58:21.565Z,93950
2018-04-10T17:00:50.339Z,93943
2018-04-10T17:03:18.425Z,93945
2018-04-10T17:05:46.490Z,93946
2018-04-10T17:08:15.645Z,93956
2018-04-10T17:10:43.916Z,93949
2018-04-10T17:13:11.992Z,93946
2018-04-10T17:15:43.139Z,93946
2018-04-10T17:18:11.243Z,93956
2018-04-10T17:20:39.312Z,93954
2018-04-10T17:23:07.564Z,93965
2018-04-10T17:25:35.692Z,93952
2018-04-10T17:28:03.797Z,93955
2018-04-10T17:30:32.716Z,93964
2018-04-10T17:33:01.893Z,93953
2018-04-10T17:35:29.948Z,93972
2018-04-10T17:37:58.008Z,93962
2018-04-10T17:40:26.391Z,93964
2018-04-10T17:42:54.472Z,93967
2018-04-10T17:45:22.628Z,93967
2018-04-10T17:47:50.822Z,93966
2018-04-10T17:50:18.886Z,93973
2018-04-10T17:52:47.029Z,93975
2018-04-10T17:55:15.928Z,93983
2018-04-10T17:57:43.980Z,93983
2018-04-10T18:00:13.017Z,93990
2018-04-10T18:02:41.157Z,93992
2018-04-10T18:05:09.235Z,93995
2018-04-10T18:07:37.296Z,93996
2018-04-10T18:10:06.160Z,93998
2018-04-10T18:12:34.207Z,94002
2018-04-10T18:15:02.268Z,94001
2018-04-10T18:17:30.369Z,94001
2018-04-10T18:19:58.479Z,94005
2018-04-10T18:22:26.570Z,94007
2018-04-10T18:24:54.623Z,94011
2018-04-10T18:27:22.710Z,94018
2018-04-10T18:29:52.495Z,94018
2018-04-10T18:32:20.559Z,94023
2018-04-10T18:34:49.082Z,94030
2018-04-10T18:37:17.172Z,94035
2018-04-10T18:39:45.227Z,94036
2018-04-10T18:42:13.284Z,94052
2018-04-10T18:44:41.356Z,94055
2018-04-10T18:47:09.527Z,94063
2018-04-10T18:49:37.596Z,94063
2018-04-10T18:52:05.652Z,94070
2018-04-10T18:54:33.967Z,94077
2018-04-10T18:57:02.007Z,94081
2018-04-10T18:59:30.079Z,94084
2018-04-10T19:01:58.146Z,94095
2018-04-10T19:04:26.207Z,94096
2018-04-10T19:06:55.035Z,94103
2018-04-10T19:09:23.216Z,94109
2018-04-10T19:11:52.383Z,94125
2018-04-10T19:14:20.478Z,94139
2018-04-10T19:16:48.757Z,94142
2018-04-10T19:19:16.824Z,94147
2018-04-10T19:21:44.864Z,94146
2018-04-10T19:24:12.933Z,94144
2018-04-10T19:26:41.000Z,94145
2018-04-10T19:29:09.367Z,94151
2018-04-10T19:31:37.681Z,94154
2018-04-10T19:34:05.849Z,94156
2018-04-10T19:36:34.932Z,94160
2018-04-10T19:39:03.017Z,94154
2018-04-10T19:41:31.219Z,94155
2018-04-10T19:43:59.343Z,94162
2018-04-10T19:46:27.433Z,94171
2018-04-10T19:48:55.525Z,94177
2018-04-10T19:51:23.709Z,94171
2018-04-10T19:53:52.268Z,94188
2018-04-10T19:56:20.563Z,94189
2018-04-10T19:58:48.752Z,94183
2018-04-10T20:01:16.844Z,94202
2018-04-10T20:03:44.944Z,94204
2018-04-10T20:06:13.128Z,94206
2018-04-10T20:08:41.261Z,94211
2018-04-10T20:11:09.327Z,94216
2018-04-10T20:13:37.476Z,94233
2018-04-10T20:16:05.660Z,94236
2018-04-10T20:18:33.768Z,94227
2018-04-10T20:21:02.262Z,94242
2018-04-10T20:23:30.327Z,94233
2018-04-10T20:25:58.388Z,94234
2018-04-10T20:28:26.889Z,94225
2018-04-10T20:30:54.939Z,94242
2018-04-10T20:33:23.128Z,94238
2018-04-10T20:35:52.363Z,94238
2018-04-10T20:38:20.461Z,94260
2018-04-10T20:40:48.661Z,94258
2018-04-10T20:43:16.768Z,94265
2018-04-10T20:45:44.934Z,94264
2018-04-10T20:48:14.060Z,94261
2018-04-10T20:50:42.404Z,94254
2018-04-10T20:53:10.592Z,94252
2018-04-10T20:55:38.808Z,94267
2018-04-10T20:58:07.860Z,94262
2018-04-10T21:00:36.158Z,94261
2018-04-10T21:03:04.298Z,94276
2018-04-10T21:05:32.424Z,94281
2018-04-10T21:08:00.540Z,94277
2018-04-10T21:10:28.672Z,94279
2018-04-10T21:12:56.811Z,94276
2018-04-10T21:15:24.867Z,94279
2018-04-10T21:17:52.935Z,94268
2018-04-10T21:20:20.996Z,94272
2018-04-10T21:22:49.063Z,94272
2018-04-10T21:25:17.125Z,94274
2018-04-10T21:27:45.192Z,94281
2018-04-10T21:30:13.252Z,94295
2018-04-10T21:32:41.334Z,94300
2018-04-10T21:35:09.423Z,94300
2018-04-10T21:37:37.519Z,94311
2018-04-10T21:40:05.540Z,94324
2018-04-10T21:42:39.032Z,94320
2018-04-10T21:45:07.095Z,94325
2018-04-10T21:47:35.162Z,94329
2018-04-10T21:50:03.220Z,94330
2018-04-10T21:52:31.288Z,94334
2018-04-10T21:54:59.345Z,94331
2018-04-10T21:57:27.420Z,94321
2018-04-10T21:59:55.507Z,94336
2018-04-10T22:02:23.628Z,94336
2018-04-10T22:04:52.351Z,94331
2018-04-10T22:07:20.423Z,94342
2018-04-10T22:09:48.492Z,94340
2018-04-10T22:12:16.544Z,94347
2018-04-10T22:14:45.407Z,94351
2018-04-10T22:17:13.465Z,94345
2018-04-10T22:19:41.540Z,94347
2018-04-10T22:22:09.600Z,94352
2018-04-10T22:24:37.676Z,94356
2018-04-10T22:27:05.732Z,94355
2018-04-10T22:29:33.801Z,94361
2018-04-10T22:32:01.889Z,94362
2018-04-10T22:34:29.928Z,94366
2018-04-10T22:36:58.000Z,94378
2018-04-10T22:39:26.107Z,94370
2018-04-10T22:41:54.157Z,94375
2018-04-10T22:44:22.232Z,94371
2018-04-10T22:46:50.299Z,94374
2018-04-10T22:49:18.356Z,94367
2018-04-10T22:51:46.433Z,94368
2018-04-10T22:54:30.500Z,94365
2018-04-10T22:56:58.555Z,94380
2018-04-10T22:59:26.612Z,94391
2018-04-10T23:01:54.688Z,94377
2018-04-10T23:04:22.748Z,94377
2018-04-10T23:06:50.828Z,94382
2018-04-10T23:09:18.882Z,94375
2018-04-10T23:11:46.956Z,94379
2018-04-10T23:14:15.017Z,94392
2018-04-10T23:16:43.092Z,94388
2018-04-10T23:19:11.152Z,94387
2018-04-10T23:21:39.224Z,94388
2018-04-10T23:24:07.285Z,94393
2018-04-10T23:26:35.352Z,94399
2018-04-10T23:29:03.412Z,94407
2018-04-10T23:31:31.496Z,94409
2018-04-10T23:33:59.560Z,94397
2018-04-10T23:36:27.636Z,94402
2018-04-10T23:38:55.698Z,94401
2018-04-10T23:41:23.776Z,94406
2018-04-10T23:43:52.209Z,94405
2018-04-10T23:46:20.273Z,94406
2018-04-10T23:48:48.339Z,94414
2018-04-10T23:51:16.428Z,94408
2018-04-10T23:53:44.491Z,94417
2018-04-10T23:56:13.423Z,94417
2018-04-10T23:58:41.492Z,94427
